createdAt,value
2022-08-05T00:00:24.053Z,21.05
2022-08-05T00:03:15.886Z,21.05
2022-08-05T00:06:05.196Z,21.05
2022-08-05T00:08:39.074Z,21.05
2022-08-05T00:11:20.592Z,21.02
2022-08-05T00:14:02.206Z,20.99
2022-08-05T00:16:36.020Z,20.97
2022-08-05T00:19:06.733Z,20.95
2022-08-05T00:21:37.839Z,20.90
2022-08-05T00:24:10.971Z,20.86
2022-08-05T00:26:50.798Z,20.83
2022-08-05T00:29:25.463Z,20.78
2022-08-05T00:32:12.724Z,20.75
2022-08-05T00:35:04.446Z,20.71
2022-08-05T00:37:53.604Z,20.69
2022-08-05T00:40:29.281Z,20.67
2022-08-05T00:44:14.662Z,20.64
2022-08-05T00:46:54.308Z,20.58
2022-08-05T00:49:44.725Z,20.54
2022-08-05T00:52:28.663Z,20.49
2022-08-05T00:55:01.917Z,20.45
2022-08-05T00:57:55.451Z,20.41
2022-08-05T01:00:25.867Z,20.36
2022-08-05T01:02:57.866Z,20.32
2022-08-05T01:05:29.337Z,20.28
2022-08-05T01:08:41.504Z,20.23
2022-08-05T01:11:01.118Z,20.19
2022-08-05T01:14:00.062Z,20.16
2022-08-05T01:16:53.871Z,20.11
2022-08-05T01:20:01.292Z,20.06
2022-08-05T01:23:14.930Z,20.02
2022-08-05T01:26:53.777Z,19.98
2022-08-05T01:29:52.639Z,19.95
2022-08-05T01:32:33.286Z,19.91
2022-08-05T01:35:51.085Z,19.87
2022-08-05T01:38:24.737Z,19.84
2022-08-05T01:41:02.377Z,19.79
2022-08-05T01:44:25.186Z,19.76
2022-08-05T01:47:12.663Z,19.71
2022-08-05T01:50:01.463Z,19.67
2022-08-05T01:52:38.628Z,19.63
2022-08-05T01:55:13.085Z,19.59
2022-08-05T01:58:10.981Z,19.57
2022-08-05T02:00:45.342Z,19.55
2022-08-05T02:03:31.849Z,19.54
2022-08-05T02:06:33.407Z,19.55
2022-08-05T02:08:59.396Z,19.57
2022-08-05T02:11:52.357Z,19.58
2022-08-05T02:14:35.691Z,19.58
2022-08-05T02:18:28.019Z,19.57
2022-08-05T02:20:14.084Z,19.54
2022-08-05T02:22:58.596Z,19.53
2022-08-05T02:25:50.022Z,19.53
2022-08-05T02:28:29.188Z,19.51
2022-08-05T02:31:22.576Z,19.49
2022-08-05T02:33:57.409Z,19.50
2022-08-05T02:36:31.429Z,19.51
2022-08-05T02:39:10.589Z,19.50
2022-08-05T02:42:01.089Z,19.46
2022-08-05T02:44:35.343Z,19.41
2022-08-05T02:47:09.215Z,19.38
2022-08-05T02:49:42.826Z,19.34
2022-08-05T02:52:29.996Z,19.31
2022-08-05T02:55:05.489Z,19.26
2022-08-05T02:58:11.929Z,19.24
2022-08-05T03:00:31.627Z,19.24
2022-08-05T03:03:10.320Z,19.22
2022-08-05T03:06:53.941Z,19.21
2022-08-05T03:08:32.484Z,19.21
2022-08-05T03:11:56.943Z,19.21
2022-08-05T03:14:02.695Z,19.20
2022-08-05T03:16:36.048Z,19.20
2022-08-05T03:19:16.947Z,19.21
2022-08-05T03:21:59.174Z,19.28
2022-08-05T03:24:30.822Z,19.30
2022-08-05T03:27:01.874Z,19.31
2022-08-05T03:29:45.734Z,19.32
2022-08-05T03:32:30.685Z,19.35
2022-08-05T03:35:00.626Z,19.33
2022-08-05T03:37:46.192Z,19.34
2022-08-05T03:40:24.417Z,19.39
2022-08-05T03:43:58.662Z,19.45
2022-08-05T03:45:59.185Z,19.50
2022-08-05T03:48:35.404Z,19.52
2022-08-05T03:52:37.118Z,19.56
2022-08-05T03:55:50.266Z,19.60
2022-08-05T03:57:54.012Z,19.61
2022-08-05T04:00:30.708Z,19.65
2022-08-05T04:03:06.911Z,19.67
2022-08-05T04:05:45.615Z,19.69
2022-08-05T04:08:34.939Z,19.72
2022-08-05T04:11:11.521Z,19.75
2022-08-05T04:13:50.336Z,19.77
2022-08-05T04:16:25.102Z,19.83
2022-08-05T04:19:00.329Z,19.88
2022-08-05T04:22:08.506Z,19.94
2022-08-05T04:24:24.453Z,20.03
2022-08-05T04:26:58.745Z,20.10
2022-08-05T04:29:35.499Z,20.16
2022-08-05T04:32:09.073Z,20.23
2022-08-05T04:34:42.737Z,20.29
2022-08-05T04:37:13.552Z,20.37
2022-08-05T04:39:44.003Z,20.43
2022-08-05T04:42:48.008Z,20.51
2022-08-05T04:45:23.015Z,20.60
2022-08-05T04:48:16.438Z,20.68
2022-08-05T04:51:03.365Z,20.77
2022-08-05T04:53:42.033Z,20.89
2022-08-05T04:56:34.964Z,20.99
2022-08-05T04:59:21.449Z,21.12
2022-08-05T05:02:06.761Z,21.25
2022-08-05T05:04:48.074Z,21.38
2022-08-05T05:07:29.179Z,21.49
2022-08-05T05:10:04.920Z,21.61
2022-08-05T05:12:36.814Z,21.73
2022-08-05T05:15:11.292Z,21.83
2022-08-05T05:17:55.969Z,21.93
2022-08-05T05:20:37.311Z,22.05
2022-08-05T05:23:08.331Z,22.17
2022-08-05T05:25:50.510Z,22.28
2022-08-05T05:28:21.491Z,22.40
2022-08-05T05:30:54.272Z,22.49
2022-08-05T05:33:26.263Z,22.59
2022-08-05T05:36:00.230Z,22.68
2022-08-05T05:38:30.809Z,22.75
2022-08-05T05:41:01.854Z,22.85
2022-08-05T05:43:56.965Z,22.95
2022-08-05T05:46:31.778Z,23.11
2022-08-05T05:49:25.222Z,23.22
2022-08-05T05:51:55.842Z,23.35
2022-08-05T05:54:35.483Z,23.45
2022-08-05T05:57:20.502Z,23.54
2022-08-05T05:59:52.944Z,23.66
2022-08-05T06:02:36.753Z,23.78
2022-08-05T06:05:16.692Z,23.90
2022-08-05T06:07:57.947Z,24.02
2022-08-05T06:10:37.497Z,24.15
2022-08-05T06:13:26.436Z,24.27
2022-08-05T06:16:29.541Z,24.40
2022-08-05T06:19:07.352Z,24.52
2022-08-05T06:21:42.961Z,24.57
2022-08-05T06:24:25.699Z,24.71
2022-08-05T06:26:59.413Z,24.83
2022-08-05T06:29:46.346Z,24.94
2022-08-05T06:32:28.845Z,25.10
2022-08-05T06:35:21.886Z,25.24
2022-08-05T06:37:59.525Z,25.37
2022-08-05T06:40:45.153Z,25.52
2022-08-05T06:44:33.169Z,25.63
2022-08-05T06:47:03.828Z,25.81
2022-08-05T06:50:01.075Z,25.90
2022-08-05T06:52:25.057Z,25.99
2022-08-05T06:55:10.110Z,26.06
2022-08-05T06:58:03.422Z,26.13
2022-08-05T07:00:56.340Z,26.23
2022-08-05T07:03:51.118Z,26.36
2022-08-05T07:06:29.056Z,26.49
2022-08-05T07:09:18.642Z,26.61
2022-08-05T07:12:49.181Z,26.73
2022-08-05T07:16:00.903Z,26.83
2022-08-05T07:18:40.314Z,27.02
2022-08-05T07:22:01.133Z,27.12
2022-08-05T07:24:28.583Z,27.23
2022-08-05T07:27:00.075Z,27.33
2022-08-05T07:30:25.408Z,27.48
2022-08-05T07:32:30.789Z,28.27
2022-08-05T07:36:02.191Z,30.61
2022-08-05T07:37:54.609Z,33.15
2022-08-05T07:43:33.431Z,36.34
2022-08-05T07:46:05.960Z,37.56
2022-08-05T07:49:05.418Z,38.57
2022-08-05T07:51:40.648Z,39.31
2022-08-05T07:54:19.012Z,39.87
2022-08-05T07:57:01.582Z,40.31
2022-08-05T07:59:52.330Z,40.91
2022-08-05T08:02:31.219Z,41.37
2022-08-05T08:05:27.818Z,41.81
2022-08-05T08:08:01.569Z,42.05
2022-08-05T08:10:34.065Z,42.43
2022-08-05T08:13:15.258Z,42.69
2022-08-05T08:16:35.347Z,43.16
2022-08-05T08:18:56.424Z,43.44
2022-08-05T08:23:03.052Z,43.94
2022-08-05T08:26:04.620Z,44.07
2022-08-05T08:28:59.152Z,44.16
2022-08-05T08:31:37.881Z,44.28
2022-08-05T08:34:14.899Z,44.34
2022-08-05T08:36:52.501Z,44.54
2022-08-05T08:39:26.265Z,44.51
2022-08-05T08:41:59.746Z,44.06
2022-08-05T08:45:20.398Z,44.09
2022-08-05T08:48:06.178Z,44.27
2022-08-05T08:50:52.002Z,44.29
2022-08-05T08:53:18.425Z,44.42
2022-08-05T08:56:03.003Z,44.47
2022-08-05T08:58:47.536Z,44.21
2022-08-05T09:01:23.019Z,43.80
2022-08-05T09:03:58.965Z,43.62
2022-08-05T09:06:32.537Z,43.61
2022-08-05T09:09:08.576Z,43.49
2022-08-05T09:11:51.229Z,43.38
2022-08-05T09:14:56.769Z,43.17
2022-08-05T09:17:43.158Z,42.93
2022-08-05T09:20:11.723Z,42.64
2022-08-05T09:23:19.839Z,42.38
2022-08-05T09:26:01.997Z,42.60
2022-08-05T09:28:35.978Z,42.76
2022-08-05T09:31:22.320Z,42.88
2022-08-05T09:34:05.542Z,42.96
2022-08-05T09:36:45.871Z,42.82
2022-08-05T09:39:39.425Z,42.38
2022-08-05T09:46:39.217Z,41.99
2022-08-05T09:49:40.438Z,41.52
2022-08-05T09:52:34.986Z,40.68
2022-08-05T09:55:56.143Z,40.41
2022-08-05T09:57:59.768Z,40.09
2022-08-05T10:00:30.756Z,39.85
2022-08-05T10:03:11.345Z,39.59
2022-08-05T10:05:42.971Z,39.03
2022-08-05T10:08:37.571Z,38.69
2022-08-05T10:11:06.751Z,38.36
2022-08-05T10:13:47.435Z,37.89
2022-08-05T10:16:37.600Z,37.50
2022-08-05T10:19:14.109Z,37.26
2022-08-05T10:21:49.855Z,36.96
2022-08-05T10:24:25.012Z,36.65
2022-08-05T10:27:00.482Z,36.43
2022-08-05T10:30:40.987Z,36.43
2022-08-05T10:32:52.142Z,36.50
2022-08-05T10:35:19.435Z,36.45
2022-08-05T10:37:49.875Z,36.41
2022-08-05T10:40:50.370Z,36.27
2022-08-05T10:43:49.528Z,35.89
2022-08-05T10:46:23.788Z,35.69
2022-08-05T10:49:01.642Z,35.65
2022-08-05T10:52:00.760Z,35.74
2022-08-05T10:55:05.443Z,35.59
2022-08-05T10:57:35.386Z,35.41
2022-08-05T11:00:20.735Z,35.34
2022-08-05T11:03:24.581Z,35.45
2022-08-05T11:06:15.151Z,35.20
2022-08-05T11:09:31.877Z,35.38
2022-08-05T11:12:41.302Z,35.12
2022-08-05T11:15:21.363Z,35.03
2022-08-05T11:17:59.623Z,35.18
2022-08-05T11:20:44.051Z,35.25
2022-08-05T11:24:05.470Z,35.26
2022-08-05T11:26:32.525Z,35.26
2022-08-05T11:29:13.357Z,35.35
2022-08-05T11:31:57.500Z,35.29
2022-08-05T11:34:47.177Z,34.93
2022-08-05T11:38:37.098Z,34.96
2022-08-05T11:41:03.666Z,34.86
2022-08-05T11:44:40.517Z,34.68
2022-08-05T11:47:14.118Z,34.72
2022-08-05T11:50:01.719Z,34.92
2022-08-05T11:52:34.599Z,35.14
2022-08-05T11:55:07.750Z,34.95
2022-08-05T11:58:09.202Z,34.71
2022-08-05T12:00:38.248Z,34.60
2022-08-05T12:03:28.797Z,34.78
2022-08-05T12:06:10.825Z,34.82
2022-08-05T12:08:54.716Z,34.96
2022-08-05T12:11:40.452Z,34.92
2022-08-05T12:14:11.610Z,34.66
2022-08-05T12:16:45.417Z,34.67
2022-08-05T12:20:26.940Z,34.60
2022-08-05T12:22:09.706Z,34.55
2022-08-05T12:24:52.928Z,34.58
2022-08-05T12:27:32.964Z,34.47
2022-08-05T12:30:10.536Z,34.36
2022-08-05T12:32:54.157Z,34.30
2022-08-05T12:35:39.512Z,34.34
2022-08-05T12:38:31.582Z,34.42
2022-08-05T12:41:03.222Z,34.36
2022-08-05T12:44:33.653Z,34.18
2022-08-05T12:47:05.188Z,34.15
2022-08-05T12:50:03.113Z,34.03
2022-08-05T12:52:42.937Z,33.79
2022-08-05T12:55:26.566Z,33.80
2022-08-05T12:58:50.286Z,33.94
2022-08-05T13:02:01.311Z,34.01
2022-08-05T13:03:48.653Z,34.22
2022-08-05T13:06:20.227Z,34.34
2022-08-05T13:08:51.704Z,34.30
2022-08-05T13:11:25.409Z,34.18
2022-08-05T13:14:20.412Z,34.20
2022-08-05T13:17:24.939Z,34.24
2022-08-05T13:20:20.401Z,34.31
2022-08-05T13:22:54.497Z,34.37
2022-08-05T13:25:52.470Z,34.30
2022-08-05T13:28:17.236Z,34.42
2022-08-05T13:30:51.193Z,34.48
2022-08-05T13:34:24.325Z,34.36
2022-08-05T13:36:14.466Z,34.33
2022-08-05T13:38:46.019Z,34.28
2022-08-05T13:41:21.226Z,34.25
2022-08-05T13:43:55.558Z,34.11
2022-08-05T13:46:50.767Z,34.06
2022-08-05T13:49:16.953Z,34.03
2022-08-05T13:51:47.212Z,34.01
2022-08-05T13:54:21.013Z,34.09
2022-08-05T13:56:54.906Z,34.23
2022-08-05T13:59:27.089Z,34.29
2022-08-05T14:02:00.124Z,34.35
2022-08-05T14:04:51.823Z,34.01
2022-08-05T14:07:59.964Z,33.67
2022-08-05T14:10:28.668Z,33.59
2022-08-05T14:13:03.279Z,33.73
2022-08-05T14:16:04.817Z,33.62
2022-08-05T14:18:25.150Z,33.45
2022-08-05T14:20:57.259Z,33.29
2022-08-05T14:23:36.425Z,33.04
2022-08-05T14:26:08.241Z,32.91
2022-08-05T14:28:57.241Z,32.82
2022-08-05T14:32:03.917Z,32.85
2022-08-05T14:34:23.630Z,32.94
2022-08-05T14:36:56.608Z,32.84
2022-08-05T14:39:28.942Z,32.78
2022-08-05T14:42:21.389Z,32.87
2022-08-05T14:44:50.738Z,33.02
2022-08-05T14:48:03.670Z,33.13
2022-08-05T14:50:19.372Z,33.07
2022-08-05T14:52:53.630Z,33.07
2022-08-05T14:55:39.438Z,33.04
2022-08-05T14:58:13.779Z,33.07
2022-08-05T15:00:58.694Z,33.15
2022-08-05T15:03:39.307Z,33.00
2022-08-05T15:06:14.948Z,32.89
2022-08-05T15:08:59.822Z,32.85
2022-08-05T15:11:52.974Z,32.76
2022-08-05T15:14:34.525Z,32.79
2022-08-05T15:17:09.746Z,32.81
2022-08-05T15:20:01.046Z,32.77
2022-08-05T15:22:33.911Z,32.80
2022-08-05T15:25:14.109Z,32.82
2022-08-05T15:27:52.375Z,32.74
2022-08-05T15:30:24.000Z,32.66
2022-08-05T15:32:55.923Z,32.56
2022-08-05T15:35:27.360Z,32.50
2022-08-05T15:38:08.643Z,32.51
2022-08-05T15:41:04.440Z,32.52
2022-08-05T15:44:36.051Z,32.54
2022-08-05T15:47:09.463Z,32.57
2022-08-05T15:49:58.786Z,32.61
2022-08-05T15:52:53.424Z,32.62
2022-08-05T15:55:25.186Z,32.53
2022-08-05T15:58:16.750Z,32.48
2022-08-05T16:00:56.988Z,32.42
2022-08-05T16:03:35.512Z,32.38
2022-08-05T16:06:13.321Z,32.41
2022-08-05T16:08:44.808Z,32.39
2022-08-05T16:11:16.636Z,32.35
2022-08-05T16:13:47.285Z,32.29
2022-08-05T16:16:25.234Z,32.26
2022-08-05T16:18:57.347Z,32.21
2022-08-05T16:21:59.444Z,32.13
2022-08-05T16:24:41.782Z,32.07
2022-08-05T16:27:10.295Z,31.98
2022-08-05T16:29:51.121Z,31.94
2022-08-05T16:32:28.764Z,31.91
2022-08-05T16:35:01.723Z,31.86
2022-08-05T16:38:15.001Z,31.83
2022-08-05T16:40:28.802Z,31.82
2022-08-05T16:43:02.089Z,31.72
2022-08-05T16:46:04.124Z,31.65
2022-08-05T16:48:25.724Z,31.58
2022-08-05T16:51:02.132Z,31.52
2022-08-05T16:54:04.770Z,31.46
2022-08-05T16:56:24.354Z,31.42
2022-08-05T16:58:53.654Z,31.41
2022-08-05T17:01:27.750Z,31.37
2022-08-05T17:04:18.904Z,31.29
2022-08-05T17:06:53.398Z,31.25
2022-08-05T17:09:23.867Z,31.23
2022-08-05T17:11:59.214Z,31.14
2022-08-05T17:14:37.022Z,31.00
2022-08-05T17:17:14.229Z,30.86
2022-08-05T17:19:47.115Z,30.77
2022-08-05T17:22:25.919Z,30.67
2022-08-05T17:24:58.811Z,30.56
2022-08-05T17:27:33.654Z,30.48
2022-08-05T17:30:12.087Z,30.42
2022-08-05T17:32:50.178Z,30.34
2022-08-05T17:35:19.883Z,30.27
2022-08-05T17:38:00.703Z,30.19
2022-08-05T17:40:36.053Z,30.10
2022-08-05T17:43:07.848Z,29.99
2022-08-05T17:45:43.027Z,29.87
2022-08-05T17:48:14.362Z,29.75
2022-08-05T17:50:47.098Z,29.63
2022-08-05T17:53:21.686Z,29.50
2022-08-05T17:55:53.202Z,29.38
2022-08-05T17:58:32.243Z,29.22
2022-08-05T18:01:02.701Z,29.10
2022-08-05T18:03:58.326Z,28.95
2022-08-05T18:06:31.121Z,28.81
2022-08-05T18:09:03.571Z,28.69
2022-08-05T18:11:33.886Z,28.57
2022-08-05T18:14:13.278Z,28.46
2022-08-05T18:16:51.904Z,28.35
2022-08-05T18:19:22.885Z,28.25
2022-08-05T18:22:08.709Z,28.15
2022-08-05T18:24:43.677Z,28.05
2022-08-05T18:27:18.392Z,27.97
2022-08-05T18:29:54.601Z,27.88
2022-08-05T18:32:28.381Z,27.78
2022-08-05T18:35:02.586Z,27.66
2022-08-05T18:38:00.794Z,27.55
2022-08-05T18:41:54.958Z,27.42
2022-08-05T18:47:05.866Z,27.19
2022-08-05T18:50:01.290Z,27.13
2022-08-05T18:52:38.784Z,27.02
2022-08-05T18:55:10.629Z,26.91
2022-08-05T18:58:03.328Z,26.80
2022-08-05T19:01:18.174Z,26.66
2022-08-05T19:03:55.310Z,26.54
2022-08-05T19:06:37.264Z,26.44
2022-08-05T19:09:18.558Z,26.34
2022-08-05T19:12:00.231Z,26.25
2022-08-05T19:14:53.288Z,26.21
2022-08-05T19:17:24.362Z,26.21
2022-08-05T19:20:05.509Z,26.22
2022-08-05T19:23:02.122Z,26.24
2022-08-05T19:26:31.972Z,26.23
2022-08-05T19:29:53.418Z,26.22
2022-08-05T19:32:48.359Z,26.21
2022-08-05T19:35:21.712Z,26.18
2022-08-05T19:38:05.975Z,26.15
2022-08-05T19:40:41.132Z,26.11
2022-08-05T19:44:31.484Z,26.07
2022-08-05T19:47:04.909Z,26.01
2022-08-05T19:49:43.924Z,25.97
2022-08-05T19:52:40.300Z,25.95
2022-08-05T19:56:14.803Z,25.93
2022-08-05T19:58:28.462Z,25.91
2022-08-05T20:00:56.620Z,25.87
2022-08-05T20:03:29.269Z,25.83
2022-08-05T20:06:16.033Z,25.80
2022-08-05T20:09:06.212Z,25.75
2022-08-05T20:11:48.433Z,25.73
2022-08-05T20:14:27.323Z,25.70
2022-08-05T20:17:00.888Z,25.67
2022-08-05T20:19:36.270Z,25.64
2022-08-05T20:22:13.596Z,25.63
2022-08-05T20:24:46.379Z,25.61
2022-08-05T20:27:16.509Z,25.59
2022-08-05T20:29:58.581Z,25.57
2022-08-05T20:32:45.021Z,25.54
2022-08-05T20:35:21.242Z,25.51
2022-08-05T20:44:16.917Z,25.52
2022-08-05T20:53:36.641Z,25.63
2022-08-05T20:56:09.810Z,25.66
2022-08-05T21:00:11.141Z,25.69
2022-08-05T21:03:34.311Z,25.72
2022-08-05T21:06:07.192Z,25.74
2022-08-05T21:08:57.707Z,25.79
2022-08-05T21:12:10.491Z,25.84
2022-08-05T21:14:19.734Z,25.83
2022-08-05T21:16:50.705Z,25.79
2022-08-05T21:19:20.183Z,25.75
2022-08-05T21:21:54.317Z,25.76
2022-08-05T21:24:26.448Z,25.73
2022-08-05T21:26:58.633Z,25.57
2022-08-05T21:29:33.477Z,25.34
2022-08-05T21:32:11.947Z,25.14
2022-08-05T21:34:55.932Z,24.93
2022-08-05T21:37:41.013Z,24.80
2022-08-05T21:40:32.593Z,24.68
2022-08-05T21:43:41.651Z,24.59
2022-08-05T21:46:21.644Z,24.46
2022-08-05T21:48:53.031Z,24.27
2022-08-05T21:52:22.156Z,24.15
2022-08-05T21:54:27.974Z,24.02
2022-08-05T21:57:30.657Z,23.94
2022-08-05T22:00:05.337Z,23.92
2022-08-05T22:02:50.520Z,23.87
2022-08-05T22:05:27.370Z,23.74
2022-08-05T22:07:59.557Z,23.67
2022-08-05T22:10:33.755Z,23.63
2022-08-05T22:13:08.879Z,23.60
2022-08-05T22:16:04.937Z,23.51
2022-08-05T22:19:01.383Z,23.46
2022-08-05T22:21:33.872Z,23.43
2022-08-05T22:24:40.166Z,23.40
2022-08-05T22:28:09.743Z,23.36
2022-08-05T22:30:24.201Z,23.37
2022-08-05T22:32:56.748Z,23.38
2022-08-05T22:35:48.016Z,23.42
2022-08-05T22:38:50.024Z,23.40
2022-08-05T22:42:09.385Z,23.45
2022-08-05T22:45:38.804Z,23.59
2022-08-05T22:48:22.245Z,23.80
2022-08-05T22:51:00.188Z,23.97
2022-08-05T22:53:58.198Z,24.20
2022-08-05T22:56:31.643Z,24.31
2022-08-05T22:59:43.749Z,24.35
2022-08-05T23:02:06.249Z,24.45
2022-08-05T23:04:51.348Z,24.47
2022-08-05T23:07:22.501Z,24.49
2022-08-05T23:10:01.282Z,24.47
2022-08-05T23:12:40.251Z,24.41
2022-08-05T23:15:17.745Z,24.31
2022-08-05T23:18:01.757Z,24.27
2022-08-05T23:20:38.272Z,24.22
2022-08-05T23:23:09.798Z,24.13
2022-08-05T23:25:51.589Z,24.06
2022-08-05T23:28:30.815Z,24.00
2022-08-05T23:31:16.459Z,23.96
2022-08-05T23:34:04.982Z,23.99
2022-08-05T23:36:56.636Z,24.02
2022-08-05T23:39:53.876Z,24.00
2022-08-05T23:42:29.334Z,23.94
2022-08-05T23:45:14.372Z,23.96
2022-08-05T23:47:49.488Z,24.03
2022-08-05T23:50:38.545Z,24.00
2022-08-05T23:53:22.657Z,23.96
2022-08-05T23:55:56.643Z,23.97
2022-08-05T23:58:39.013Z,23.98
